sensor_id;sensor_type;location;lat;lon;timestamp;P1;durP1;ratioP1;P2;durP2;ratioP2
7563;SDS011;3823;53.586;10.040;2024-02-23T00:01:43;1.30;;;0.40;;
7563;SDS011;3823;53.586;10.040;2024-02-23T00:04:09;2.13;;;0.75;;
7563;SDS011;3823;53.586;10.040;2024-02-23T00:06:35;1.40;;;0.60;;
7563;SDS011;3823;53.586;10.040;2024-02-23T00:09:01;1.50;;;0.70;;
7563;SDS011;3823;53.586;10.040;2024-02-23T00:11:26;1.33;;;0.63;;
7563;SDS011;3823;53.586;10.040;2024-02-23T00:13:53;2.65;;;0.80;;
7563;SDS011;3823;53.586;10.040;2024-02-23T00:16:19;3.75;;;0.90;;
7563;SDS011;3823;53.586;10.040;2024-02-23T00:18:44;1.30;;;0.90;;
7563;SDS011;3823;53.586;10.040;2024-02-23T00:21:10;1.10;;;0.73;;
7563;SDS011;3823;53.586;10.040;2024-02-23T00:23:35;3.13;;;0.90;;
7563;SDS011;3823;53.586;10.040;2024-02-23T00:26:01;2.70;;;1.20;;
7563;SDS011;3823;53.586;10.040;2024-02-23T00:28:27;6.13;;;1.00;;
7563;SDS011;3823;53.586;10.040;2024-02-23T00:30:52;1.30;;;1.08;;
7563;SDS011;3823;53.586;10.040;2024-02-23T00:33:18;1.73;;;1.33;;
7563;SDS011;3823;53.586;10.040;2024-02-23T00:35:43;1.20;;;0.75;;
7563;SDS011;3823;53.586;10.040;2024-02-23T00:38:09;1.02;;;0.50;;
7563;SDS011;3823;53.586;10.040;2024-02-23T00:40:35;1.38;;;0.63;;
7563;SDS011;3823;53.586;10.040;2024-02-23T00:43:00;1.85;;;0.85;;
7563;SDS011;3823;53.586;10.040;2024-02-23T00:45:26;6.88;;;0.50;;
7563;SDS011;3823;53.586;10.040;2024-02-23T00:47:51;1.20;;;0.80;;
7563;SDS011;3823;53.586;10.040;2024-02-23T00:50:17;1.67;;;0.57;;
7563;SDS011;3823;53.586;10.040;2024-02-23T00:52:42;1.67;;;0.95;;
7563;SDS011;3823;53.586;10.040;2024-02-23T00:55:08;1.23;;;0.93;;
7563;SDS011;3823;53.586;10.040;2024-02-23T00:57:34;3.08;;;1.13;;
7563;SDS011;3823;53.586;10.040;2024-02-23T01:00:00;1.92;;;0.35;;
7563;SDS011;3823;53.586;10.040;2024-02-23T01:02:28;2.92;;;0.43;;
7563;SDS011;3823;53.586;10.040;2024-02-23T01:04:54;1.83;;;0.40;;
7563;SDS011;3823;53.586;10.040;2024-02-23T01:07:22;1.00;;;0.30;;
7563;SDS011;3823;53.586;10.040;2024-02-23T01:09:47;1.20;;;0.30;;
7563;SDS011;3823;53.586;10.040;2024-02-23T01:12:13;1.10;;;0.30;;
7563;SDS011;3823;53.586;10.040;2024-02-23T01:14:39;1.35;;;0.30;;
7563;SDS011;3823;53.586;10.040;2024-02-23T01:17:04;1.05;;;0.45;;
7563;SDS011;3823;53.586;10.040;2024-02-23T01:19:30;4.55;;;0.60;;
7563;SDS011;3823;53.586;10.040;2024-02-23T01:21:55;1.85;;;0.40;;
7563;SDS011;3823;53.586;10.040;2024-02-23T01:24:24;3.53;;;0.40;;
7563;SDS011;3823;53.586;10.040;2024-02-23T01:26:52;1.33;;;0.43;;
7563;SDS011;3823;53.586;10.040;2024-02-23T01:29:18;1.80;;;0.43;;
7563;SDS011;3823;53.586;10.040;2024-02-23T01:31:44;1.33;;;0.93;;
7563;SDS011;3823;53.586;10.040;2024-02-23T01:34:09;1.20;;;0.50;;
7563;SDS011;3823;53.586;10.040;2024-02-23T01:36:35;1.05;;;0.45;;
7563;SDS011;3823;53.586;10.040;2024-02-23T01:39:02;1.00;;;0.40;;
7563;SDS011;3823;53.586;10.040;2024-02-23T01:41:27;1.02;;;0.60;;
7563;SDS011;3823;53.586;10.040;2024-02-23T01:43:53;1.20;;;0.68;;
7563;SDS011;3823;53.586;10.040;2024-02-23T01:46:18;1.00;;;0.50;;
7563;SDS011;3823;53.586;10.040;2024-02-23T01:48:45;1.48;;;0.85;;
7563;SDS011;3823;53.586;10.040;2024-02-23T01:51:11;1.13;;;0.50;;
7563;SDS011;3823;53.586;10.040;2024-02-23T01:53:37;1.63;;;0.50;;
7563;SDS011;3823;53.586;10.040;2024-02-23T01:56:04;1.10;;;0.45;;
7563;SDS011;3823;53.586;10.040;2024-02-23T01:58:30;1.38;;;0.50;;
7563;SDS011;3823;53.586;10.040;2024-02-23T02:00:56;1.10;;;0.40;;
7563;SDS011;3823;53.586;10.040;2024-02-23T02:03:22;1.00;;;0.35;;
7563;SDS011;3823;53.586;10.040;2024-02-23T02:05:47;1.00;;;0.30;;
7563;SDS011;3823;53.586;10.040;2024-02-23T02:08:14;1.00;;;0.38;;
7563;SDS011;3823;53.586;10.040;2024-02-23T02:10:41;5.78;;;0.38;;
7563;SDS011;3823;53.586;10.040;2024-02-23T02:13:08;1.55;;;0.30;;
7563;SDS011;3823;53.586;10.040;2024-02-23T02:15:33;1.00;;;0.30;;
7563;SDS011;3823;53.586;10.040;2024-02-23T02:17:59;1.00;;;0.30;;
7563;SDS011;3823;53.586;10.040;2024-02-23T02:20:25;1.42;;;0.30;;
7563;SDS011;3823;53.586;10.040;2024-02-23T02:22:52;1.10;;;0.30;;
7563;SDS011;3823;53.586;10.040;2024-02-23T02:25:18;0.90;;;0.30;;
7563;SDS011;3823;53.586;10.040;2024-02-23T02:27:43;0.90;;;0.28;;
7563;SDS011;3823;53.586;10.040;2024-02-23T02:30:10;0.90;;;0.30;;
7563;SDS011;3823;53.586;10.040;2024-02-23T02:32:37;0.90;;;0.25;;
7563;SDS011;3823;53.586;10.040;2024-02-23T02:35:02;0.90;;;0.28;;
7563;SDS011;3823;53.586;10.040;2024-02-23T02:37:28;1.90;;;0.30;;
7563;SDS011;3823;53.586;10.040;2024-02-23T02:39:54;0.90;;;0.20;;
7563;SDS011;3823;53.586;10.040;2024-02-23T02:42:19;1.55;;;0.30;;
7563;SDS011;3823;53.586;10.040;2024-02-23T02:44:45;0.90;;;0.30;;
7563;SDS011;3823;53.586;10.040;2024-02-23T02:47:10;0.90;;;0.30;;
7563;SDS011;3823;53.586;10.040;2024-02-23T02:49:36;0.90;;;0.30;;
7563;SDS011;3823;53.586;10.040;2024-02-23T02:52:01;0.90;;;0.30;;
7563;SDS011;3823;53.586;10.040;2024-02-23T02:54:27;0.90;;;0.30;;
7563;SDS011;3823;53.586;10.040;2024-02-23T02:56:52;0.90;;;0.30;;
7563;SDS011;3823;53.586;10.040;2024-02-23T02:59:19;0.90;;;0.30;;
7563;SDS011;3823;53.586;10.040;2024-02-23T03:01:45;1.00;;;0.30;;
7563;SDS011;3823;53.586;10.040;2024-02-23T03:04:14;1.10;;;0.30;;
7563;SDS011;3823;53.586;10.040;2024-02-23T03:06:39;0.90;;;0.30;;
7563;SDS011;3823;53.586;10.040;2024-02-23T03:09:05;0.90;;;0.20;;
7563;SDS011;3823;53.586;10.040;2024-02-23T03:11:32;1.10;;;0.40;;
7563;SDS011;3823;53.586;10.040;2024-02-23T03:13:57;0.90;;;0.30;;
7563;SDS011;3823;53.586;10.040;2024-02-23T03:16:23;1.20;;;0.32;;
7563;SDS011;3823;53.586;10.040;2024-02-23T03:18:51;1.00;;;0.30;;
7563;SDS011;3823;53.586;10.040;2024-02-23T03:21:22;4.30;;;0.40;;
7563;SDS011;3823;53.586;10.040;2024-02-23T03:23:48;1.10;;;0.40;;
7563;SDS011;3823;53.586;10.040;2024-02-23T03:26:14;1.42;;;0.40;;
7563;SDS011;3823;53.586;10.040;2024-02-23T03:28:42;1.10;;;0.50;;
7563;SDS011;3823;53.586;10.040;2024-02-23T03:31:07;1.10;;;0.50;;
7563;SDS011;3823;53.586;10.040;2024-02-23T03:33:33;1.08;;;0.60;;
7563;SDS011;3823;53.586;10.040;2024-02-23T03:35:59;1.40;;;0.90;;
7563;SDS011;3823;53.586;10.040;2024-02-23T03:38:24;1.58;;;0.70;;
7563;SDS011;3823;53.586;10.040;2024-02-23T03:40:50;1.88;;;1.00;;
7563;SDS011;3823;53.586;10.040;2024-02-23T03:43:15;2.35;;;0.90;;
7563;SDS011;3823;53.586;10.040;2024-02-23T03:45:41;2.53;;;1.05;;
7563;SDS011;3823;53.586;10.040;2024-02-23T03:48:06;1.60;;;0.60;;
7563;SDS011;3823;53.586;10.040;2024-02-23T03:50:32;1.20;;;0.73;;
7563;SDS011;3823;53.586;10.040;2024-02-23T03:52:57;2.40;;;0.80;;
7563;SDS011;3823;53.586;10.040;2024-02-23T03:55:23;1.50;;;0.77;;
7563;SDS011;3823;53.586;10.040;2024-02-23T03:57:48;1.10;;;0.50;;
7563;SDS011;3823;53.586;10.040;2024-02-23T04:00:14;2.33;;;1.30;;
7563;SDS011;3823;53.586;10.040;2024-02-23T04:02:40;1.30;;;0.88;;
7563;SDS011;3823;53.586;10.040;2024-02-23T04:05:05;1.20;;;0.50;;
7563;SDS011;3823;53.586;10.040;2024-02-23T04:07:31;1.70;;;0.82;;
7563;SDS011;3823;53.586;10.040;2024-02-23T04:09:57;1.30;;;0.82;;
7563;SDS011;3823;53.586;10.040;2024-02-23T04:12:23;1.63;;;0.65;;
7563;SDS011;3823;53.586;10.040;2024-02-23T04:14:48;2.13;;;0.65;;
7563;SDS011;3823;53.586;10.040;2024-02-23T04:17:14;2.00;;;0.50;;
7563;SDS011;3823;53.586;10.040;2024-02-23T04:19:40;1.27;;;0.80;;
7563;SDS011;3823;53.586;10.040;2024-02-23T04:22:06;5.65;;;0.68;;
7563;SDS011;3823;53.586;10.040;2024-02-23T04:24:34;1.20;;;0.60;;
7563;SDS011;3823;53.586;10.040;2024-02-23T04:27:04;2.25;;;0.95;;
7563;SDS011;3823;53.586;10.040;2024-02-23T04:29:30;1.75;;;1.08;;
7563;SDS011;3823;53.586;10.040;2024-02-23T04:31:57;2.35;;;1.30;;
7563;SDS011;3823;53.586;10.040;2024-02-23T04:34:22;1.17;;;0.70;;
7563;SDS011;3823;53.586;10.040;2024-02-23T04:36:48;1.95;;;0.63;;
7563;SDS011;3823;53.586;10.040;2024-02-23T04:39:14;1.25;;;0.70;;
7563;SDS011;3823;53.586;10.040;2024-02-23T04:41:39;1.60;;;0.70;;
7563;SDS011;3823;53.586;10.040;2024-02-23T04:44:05;5.72;;;0.70;;
7563;SDS011;3823;53.586;10.040;2024-02-23T04:46:31;1.20;;;0.70;;
7563;SDS011;3823;53.586;10.040;2024-02-23T04:48:57;2.55;;;0.85;;
7563;SDS011;3823;53.586;10.040;2024-02-23T04:51:22;1.75;;;0.90;;
7563;SDS011;3823;53.586;10.040;2024-02-23T04:53:48;1.98;;;1.00;;
7563;SDS011;3823;53.586;10.040;2024-02-23T04:56:15;1.33;;;0.88;;
7563;SDS011;3823;53.586;10.040;2024-02-23T04:58:40;2.50;;;1.02;;
7563;SDS011;3823;53.586;10.040;2024-02-23T05:01:07;1.92;;;1.20;;
7563;SDS011;3823;53.586;10.040;2024-02-23T05:03:33;2.22;;;1.25;;
7563;SDS011;3823;53.586;10.040;2024-02-23T05:05:58;3.25;;;1.60;;
7563;SDS011;3823;53.586;10.040;2024-02-23T05:08:24;2.55;;;1.10;;
7563;SDS011;3823;53.586;10.040;2024-02-23T05:10:50;2.33;;;1.00;;
7563;SDS011;3823;53.586;10.040;2024-02-23T05:13:16;3.83;;;1.70;;
7563;SDS011;3823;53.586;10.040;2024-02-23T05:15:41;2.50;;;1.50;;
7563;SDS011;3823;53.586;10.040;2024-02-23T05:18:07;3.42;;;1.67;;
7563;SDS011;3823;53.586;10.040;2024-02-23T05:20:32;3.17;;;1.80;;
7563;SDS011;3823;53.586;10.040;2024-02-23T05:22:58;4.72;;;1.42;;
7563;SDS011;3823;53.586;10.040;2024-02-23T05:25:24;6.13;;;1.50;;
7563;SDS011;3823;53.586;10.040;2024-02-23T05:27:53;2.92;;;1.80;;
7563;SDS011;3823;53.586;10.040;2024-02-23T05:30:18;3.58;;;1.73;;
7563;SDS011;3823;53.586;10.040;2024-02-23T05:32:44;3.03;;;1.65;;
7563;SDS011;3823;53.586;10.040;2024-02-23T05:35:09;9.65;;;2.20;;
7563;SDS011;3823;53.586;10.040;2024-02-23T05:37:35;2.63;;;2.05;;
7563;SDS011;3823;53.586;10.040;2024-02-23T05:40:02;3.88;;;1.55;;
7563;SDS011;3823;53.586;10.040;2024-02-23T05:42:35;3.50;;;1.60;;
7563;SDS011;3823;53.586;10.040;2024-02-23T05:45:00;3.08;;;1.70;;
7563;SDS011;3823;53.586;10.040;2024-02-23T05:47:26;3.92;;;2.25;;
7563;SDS011;3823;53.586;10.040;2024-02-23T05:49:52;4.00;;;1.45;;
7563;SDS011;3823;53.586;10.040;2024-02-23T05:52:18;1.30;;;1.20;;
7563;SDS011;3823;53.586;10.040;2024-02-23T05:54:44;6.10;;;2.88;;
7563;SDS011;3823;53.586;10.040;2024-02-23T05:57:09;2.30;;;1.58;;
7563;SDS011;3823;53.586;10.040;2024-02-23T05:59:35;1.67;;;1.10;;
7563;SDS011;3823;53.586;10.040;2024-02-23T06:02:00;1.40;;;0.90;;
7563;SDS011;3823;53.586;10.040;2024-02-23T06:04:26;2.05;;;1.33;;
7563;SDS011;3823;53.586;10.040;2024-02-23T06:06:52;3.42;;;1.27;;
7563;SDS011;3823;53.586;10.040;2024-02-23T06:09:18;3.10;;;1.00;;
7563;SDS011;3823;53.586;10.040;2024-02-23T06:11:44;2.05;;;1.30;;
7563;SDS011;3823;53.586;10.040;2024-02-23T06:14:09;2.42;;;1.38;;
7563;SDS011;3823;53.586;10.040;2024-02-23T06:16:36;5.07;;;1.50;;
7563;SDS011;3823;53.586;10.040;2024-02-23T06:19:02;5.97;;;1.20;;
7563;SDS011;3823;53.586;10.040;2024-02-23T06:21:28;2.40;;;0.88;;
7563;SDS011;3823;53.586;10.040;2024-02-23T06:23:54;3.40;;;1.30;;
7563;SDS011;3823;53.586;10.040;2024-02-23T06:26:20;2.47;;;0.90;;
7563;SDS011;3823;53.586;10.040;2024-02-23T06:28:46;8.75;;;1.30;;
7563;SDS011;3823;53.586;10.040;2024-02-23T06:31:13;3.58;;;1.00;;
7563;SDS011;3823;53.586;10.040;2024-02-23T06:33:39;2.30;;;1.00;;
7563;SDS011;3823;53.586;10.040;2024-02-23T06:36:05;2.97;;;1.15;;
7563;SDS011;3823;53.586;10.040;2024-02-23T06:38:32;2.42;;;1.10;;
7563;SDS011;3823;53.586;10.040;2024-02-23T06:40:58;1.88;;;1.20;;
7563;SDS011;3823;53.586;10.040;2024-02-23T06:43:24;1.70;;;1.33;;
7563;SDS011;3823;53.586;10.040;2024-02-23T06:45:49;1.90;;;1.10;;
7563;SDS011;3823;53.586;10.040;2024-02-23T06:48:15;4.15;;;1.60;;
7563;SDS011;3823;53.586;10.040;2024-02-23T06:50:40;3.35;;;1.63;;
7563;SDS011;3823;53.586;10.040;2024-02-23T06:53:06;1.80;;;1.25;;
7563;SDS011;3823;53.586;10.040;2024-02-23T06:55:31;2.03;;;1.65;;
7563;SDS011;3823;53.586;10.040;2024-02-23T06:57:58;2.58;;;1.42;;
7563;SDS011;3823;53.586;10.040;2024-02-23T07:00:24;4.28;;;2.13;;
7563;SDS011;3823;53.586;10.040;2024-02-23T07:02:49;2.08;;;1.75;;
7563;SDS011;3823;53.586;10.040;2024-02-23T07:05:15;2.45;;;2.03;;
7563;SDS011;3823;53.586;10.040;2024-02-23T07:07:40;3.15;;;1.70;;
7563;SDS011;3823;53.586;10.040;2024-02-23T07:10:06;2.80;;;2.05;;
7563;SDS011;3823;53.586;10.040;2024-02-23T07:12:32;3.03;;;1.88;;
7563;SDS011;3823;53.586;10.040;2024-02-23T07:14:58;4.13;;;1.88;;
7563;SDS011;3823;53.586;10.040;2024-02-23T07:17:23;3.90;;;2.63;;
7563;SDS011;3823;53.586;10.040;2024-02-23T07:19:49;5.65;;;1.73;;
7563;SDS011;3823;53.586;10.040;2024-02-23T07:22:16;2.80;;;1.58;;
7563;SDS011;3823;53.586;10.040;2024-02-23T07:24:43;3.50;;;2.08;;
7563;SDS011;3823;53.586;10.040;2024-02-23T07:27:09;3.00;;;2.42;;
7563;SDS011;3823;53.586;10.040;2024-02-23T07:29:35;3.30;;;2.15;;
7563;SDS011;3823;53.586;10.040;2024-02-23T07:32:00;3.22;;;1.80;;
7563;SDS011;3823;53.586;10.040;2024-02-23T07:34:26;2.08;;;1.80;;
7563;SDS011;3823;53.586;10.040;2024-02-23T07:36:52;4.22;;;2.55;;
7563;SDS011;3823;53.586;10.040;2024-02-23T07:39:18;2.42;;;2.10;;
7563;SDS011;3823;53.586;10.040;2024-02-23T07:41:44;4.43;;;2.00;;
7563;SDS011;3823;53.586;10.040;2024-02-23T07:44:10;4.03;;;1.80;;
7563;SDS011;3823;53.586;10.040;2024-02-23T07:46:35;5.60;;;1.45;;
7563;SDS011;3823;53.586;10.040;2024-02-23T07:49:01;4.57;;;2.33;;
7563;SDS011;3823;53.586;10.040;2024-02-23T07:51:29;7.10;;;1.65;;
7563;SDS011;3823;53.586;10.040;2024-02-23T07:53:54;1.70;;;1.60;;
7563;SDS011;3823;53.586;10.040;2024-02-23T07:56:20;3.72;;;2.50;;
7563;SDS011;3823;53.586;10.040;2024-02-23T07:58:46;2.45;;;1.83;;
7563;SDS011;3823;53.586;10.040;2024-02-23T08:01:11;5.57;;;1.88;;
7563;SDS011;3823;53.586;10.040;2024-02-23T08:03:39;4.57;;;2.03;;
7563;SDS011;3823;53.586;10.040;2024-02-23T08:06:05;6.03;;;2.00;;
7563;SDS011;3823;53.586;10.040;2024-02-23T08:08:31;3.47;;;1.67;;
7563;SDS011;3823;53.586;10.040;2024-02-23T08:11:00;7.63;;;2.08;;
7563;SDS011;3823;53.586;10.040;2024-02-23T08:13:26;3.80;;;1.67;;
7563;SDS011;3823;53.586;10.040;2024-02-23T08:15:52;7.32;;;1.52;;
7563;SDS011;3823;53.586;10.040;2024-02-23T08:18:17;2.85;;;1.40;;
7563;SDS011;3823;53.586;10.040;2024-02-23T08:20:43;7.88;;;2.85;;
7563;SDS011;3823;53.586;10.040;2024-02-23T08:23:08;5.50;;;1.25;;
7563;SDS011;3823;53.586;10.040;2024-02-23T08:25:34;3.55;;;1.35;;
7563;SDS011;3823;53.586;10.040;2024-02-23T08:28:00;6.43;;;1.60;;
7563;SDS011;3823;53.586;10.040;2024-02-23T08:30:26;2.60;;;1.70;;
7563;SDS011;3823;53.586;10.040;2024-02-23T08:32:52;3.05;;;1.73;;
7563;SDS011;3823;53.586;10.040;2024-02-23T08:35:17;5.78;;;1.30;;
7563;SDS011;3823;53.586;10.040;2024-02-23T08:37:43;5.32;;;1.25;;
7563;SDS011;3823;53.586;10.040;2024-02-23T08:40:09;5.13;;;1.70;;
7563;SDS011;3823;53.586;10.040;2024-02-23T08:42:35;3.70;;;1.48;;
7563;SDS011;3823;53.586;10.040;2024-02-23T08:45:01;3.05;;;1.42;;
7563;SDS011;3823;53.586;10.040;2024-02-23T08:47:27;3.15;;;1.17;;
7563;SDS011;3823;53.586;10.040;2024-02-23T08:49:58;4.15;;;1.63;;
7563;SDS011;3823;53.586;10.040;2024-02-23T08:52:23;3.75;;;1.50;;
7563;SDS011;3823;53.586;10.040;2024-02-23T08:54:49;2.78;;;1.42;;
7563;SDS011;3823;53.586;10.040;2024-02-23T08:57:15;2.92;;;1.58;;
7563;SDS011;3823;53.586;10.040;2024-02-23T08:59:44;3.70;;;1.23;;
7563;SDS011;3823;53.586;10.040;2024-02-23T09:02:10;4.82;;;1.50;;
7563;SDS011;3823;53.586;10.040;2024-02-23T09:04:35;5.03;;;1.25;;
7563;SDS011;3823;53.586;10.040;2024-02-23T09:07:01;6.53;;;1.80;;
7563;SDS011;3823;53.586;10.040;2024-02-23T09:09:27;2.50;;;1.23;;
7563;SDS011;3823;53.586;10.040;2024-02-23T09:11:52;2.70;;;1.25;;
7563;SDS011;3823;53.586;10.040;2024-02-23T09:14:18;9.65;;;1.55;;
7563;SDS011;3823;53.586;10.040;2024-02-23T09:16:44;4.72;;;1.73;;
7563;SDS011;3823;53.586;10.040;2024-02-23T09:19:11;4.85;;;1.40;;
7563;SDS011;3823;53.586;10.040;2024-02-23T09:21:37;3.97;;;1.60;;
7563;SDS011;3823;53.586;10.040;2024-02-23T09:24:03;6.13;;;1.30;;
7563;SDS011;3823;53.586;10.040;2024-02-23T09:26:29;4.05;;;1.45;;
7563;SDS011;3823;53.586;10.040;2024-02-23T09:28:55;2.05;;;1.55;;
7563;SDS011;3823;53.586;10.040;2024-02-23T09:31:20;3.15;;;1.33;;
7563;SDS011;3823;53.586;10.040;2024-02-23T09:33:46;2.63;;;1.52;;
7563;SDS011;3823;53.586;10.040;2024-02-23T09:36:13;2.25;;;1.27;;
7563;SDS011;3823;53.586;10.040;2024-02-23T09:38:39;1.70;;;1.10;;
7563;SDS011;3823;53.586;10.040;2024-02-23T09:41:04;3.58;;;2.35;;
7563;SDS011;3823;53.586;10.040;2024-02-23T09:43:36;4.65;;;3.17;;
7563;SDS011;3823;53.586;10.040;2024-02-23T09:46:01;4.18;;;1.30;;
7563;SDS011;3823;53.586;10.040;2024-02-23T09:48:27;5.45;;;1.70;;
7563;SDS011;3823;53.586;10.040;2024-02-23T09:50:54;2.80;;;1.10;;
7563;SDS011;3823;53.586;10.040;2024-02-23T09:53:21;5.38;;;1.50;;
7563;SDS011;3823;53.586;10.040;2024-02-23T09:55:48;4.85;;;1.48;;
7563;SDS011;3823;53.586;10.040;2024-02-23T09:58:16;1.92;;;1.40;;
7563;SDS011;3823;53.586;10.040;2024-02-23T10:00:42;6.55;;;1.42;;
7563;SDS011;3823;53.586;10.040;2024-02-23T10:03:08;3.97;;;1.80;;
7563;SDS011;3823;53.586;10.040;2024-02-23T10:05:34;3.50;;;1.73;;
7563;SDS011;3823;53.586;10.040;2024-02-23T10:08:00;6.43;;;1.77;;
7563;SDS011;3823;53.586;10.040;2024-02-23T10:10:32;2.95;;;1.80;;
7563;SDS011;3823;53.586;10.040;2024-02-23T10:12:59;5.68;;;1.33;;
7563;SDS011;3823;53.586;10.040;2024-02-23T10:15:24;3.63;;;1.67;;
7563;SDS011;3823;53.586;10.040;2024-02-23T10:17:51;5.93;;;1.73;;
7563;SDS011;3823;53.586;10.040;2024-02-23T10:20:19;7.57;;;1.55;;
7563;SDS011;3823;53.586;10.040;2024-02-23T10:22:44;6.50;;;2.10;;
7563;SDS011;3823;53.586;10.040;2024-02-23T10:25:10;3.83;;;2.28;;
7563;SDS011;3823;53.586;10.040;2024-02-23T10:27:36;7.25;;;3.45;;
7563;SDS011;3823;53.586;10.040;2024-02-23T10:30:02;4.15;;;2.65;;
7563;SDS011;3823;53.586;10.040;2024-02-23T10:32:28;3.15;;;1.50;;
7563;SDS011;3823;53.586;10.040;2024-02-23T10:34:55;2.85;;;1.95;;
7563;SDS011;3823;53.586;10.040;2024-02-23T10:37:28;2.70;;;1.38;;
7563;SDS011;3823;53.586;10.040;2024-02-23T10:39:56;3.28;;;1.42;;
7563;SDS011;3823;53.586;10.040;2024-02-23T10:42:23;2.70;;;1.30;;
7563;SDS011;3823;53.586;10.040;2024-02-23T10:44:53;3.03;;;1.38;;
7563;SDS011;3823;53.586;10.040;2024-02-23T10:47:21;3.63;;;1.50;;
7563;SDS011;3823;53.586;10.040;2024-02-23T10:49:47;5.03;;;1.13;;
7563;SDS011;3823;53.586;10.040;2024-02-23T10:52:13;4.53;;;1.92;;
7563;SDS011;3823;53.586;10.040;2024-02-23T10:54:40;8.48;;;2.00;;
7563;SDS011;3823;53.586;10.040;2024-02-23T10:57:06;8.52;;;1.50;;
7563;SDS011;3823;53.586;10.040;2024-02-23T10:59:32;2.60;;;1.10;;
7563;SDS011;3823;53.586;10.040;2024-02-23T11:01:58;4.57;;;1.63;;
7563;SDS011;3823;53.586;10.040;2024-02-23T11:04:26;1.75;;;1.40;;
7563;SDS011;3823;53.586;10.040;2024-02-23T11:06:55;5.90;;;1.67;;
7563;SDS011;3823;53.586;10.040;2024-02-23T11:09:23;4.00;;;1.58;;
7563;SDS011;3823;53.586;10.040;2024-02-23T11:11:56;6.50;;;1.42;;
7563;SDS011;3823;53.586;10.040;2024-02-23T11:14:32;4.63;;;1.35;;
7563;SDS011;3823;53.586;10.040;2024-02-23T11:17:00;8.30;;;3.25;;
7563;SDS011;3823;53.586;10.040;2024-02-23T11:19:33;4.25;;;1.20;;
7563;SDS011;3823;53.586;10.040;2024-02-23T11:21:59;4.07;;;1.05;;
7563;SDS011;3823;53.586;10.040;2024-02-23T11:24:32;2.35;;;1.23;;
7563;SDS011;3823;53.586;10.040;2024-02-23T11:26:58;5.20;;;1.23;;
7563;SDS011;3823;53.586;10.040;2024-02-23T11:29:26;6.55;;;1.52;;
7563;SDS011;3823;53.586;10.040;2024-02-23T11:31:53;6.43;;;1.20;;
7563;SDS011;3823;53.586;10.040;2024-02-23T11:34:26;4.70;;;1.05;;
7563;SDS011;3823;53.586;10.040;2024-02-23T11:36:52;2.75;;;1.08;;
7563;SDS011;3823;53.586;10.040;2024-02-23T11:39:18;1.67;;;1.17;;
7563;SDS011;3823;53.586;10.040;2024-02-23T11:41:45;4.88;;;1.02;;
7563;SDS011;3823;53.586;10.040;2024-02-23T11:44:14;3.92;;;1.00;;
7563;SDS011;3823;53.586;10.040;2024-02-23T11:46:42;3.00;;;1.15;;
7563;SDS011;3823;53.586;10.040;2024-02-23T11:49:08;5.25;;;1.25;;
7563;SDS011;3823;53.586;10.040;2024-02-23T11:51:34;2.42;;;1.13;;
7563;SDS011;3823;53.586;10.040;2024-02-23T11:54:00;2.90;;;1.08;;
7563;SDS011;3823;53.586;10.040;2024-02-23T11:56:26;3.22;;;1.73;;
7563;SDS011;3823;53.586;10.040;2024-02-23T11:58:53;3.15;;;1.63;;
7563;SDS011;3823;53.586;10.040;2024-02-23T12:01:19;1.75;;;1.02;;
7563;SDS011;3823;53.586;10.040;2024-02-23T12:03:44;4.05;;;1.30;;
7563;SDS011;3823;53.586;10.040;2024-02-23T12:06:10;3.85;;;0.98;;
7563;SDS011;3823;53.586;10.040;2024-02-23T12:08:38;4.13;;;0.90;;
7563;SDS011;3823;53.586;10.040;2024-02-23T12:11:04;2.85;;;1.00;;
7563;SDS011;3823;53.586;10.040;2024-02-23T12:13:30;2.05;;;1.10;;
7563;SDS011;3823;53.586;10.040;2024-02-23T12:15:57;3.92;;;0.90;;
7563;SDS011;3823;53.586;10.040;2024-02-23T12:18:23;3.45;;;1.70;;
7563;SDS011;3823;53.586;10.040;2024-02-23T12:20:51;4.30;;;1.10;;
7563;SDS011;3823;53.586;10.040;2024-02-23T12:23:17;6.10;;;3.10;;
7563;SDS011;3823;53.586;10.040;2024-02-23T12:25:58;2.65;;;1.27;;
7563;SDS011;3823;53.586;10.040;2024-02-23T12:28:25;4.88;;;1.08;;
7563;SDS011;3823;53.586;10.040;2024-02-23T12:31:01;4.63;;;1.75;;
7563;SDS011;3823;53.586;10.040;2024-02-23T12:33:28;2.10;;;0.82;;
7563;SDS011;3823;53.586;10.040;2024-02-23T12:36:01;1.85;;;0.82;;
7563;SDS011;3823;53.586;10.040;2024-02-23T12:38:27;2.08;;;0.90;;
7563;SDS011;3823;53.586;10.040;2024-02-23T12:40:53;6.05;;;1.27;;
7563;SDS011;3823;53.586;10.040;2024-02-23T12:43:20;1.92;;;0.82;;
7563;SDS011;3823;53.586;10.040;2024-02-23T12:45:56;2.40;;;0.85;;
7563;SDS011;3823;53.586;10.040;2024-02-23T12:48:22;8.23;;;0.90;;
7563;SDS011;3823;53.586;10.040;2024-02-23T12:50:48;2.22;;;1.10;;
7563;SDS011;3823;53.586;10.040;2024-02-23T12:53:29;5.88;;;0.90;;
7563;SDS011;3823;53.586;10.040;2024-02-23T12:56:01;3.15;;;0.90;;
7563;SDS011;3823;53.586;10.040;2024-02-23T12:58:27;2.83;;;1.15;;
7563;SDS011;3823;53.586;10.040;2024-02-23T13:00:53;1.27;;;0.80;;
7563;SDS011;3823;53.586;10.040;2024-02-23T13:03:19;1.52;;;0.88;;
7563;SDS011;3823;53.586;10.040;2024-02-23T13:05:45;5.88;;;1.00;;
7563;SDS011;3823;53.586;10.040;2024-02-23T13:08:11;5.05;;;0.80;;
7563;SDS011;3823;53.586;10.040;2024-02-23T13:10:37;2.30;;;0.93;;
7563;SDS011;3823;53.586;10.040;2024-02-23T13:13:03;2.50;;;0.77;;
7563;SDS011;3823;53.586;10.040;2024-02-23T13:15:28;5.65;;;0.98;;
7563;SDS011;3823;53.586;10.040;2024-02-23T13:17:54;1.60;;;0.88;;
7563;SDS011;3823;53.586;10.040;2024-02-23T13:20:22;3.28;;;0.88;;
7563;SDS011;3823;53.586;10.040;2024-02-23T13:22:47;3.00;;;1.00;;
7563;SDS011;3823;53.586;10.040;2024-02-23T13:25:13;2.97;;;0.93;;
7563;SDS011;3823;53.586;10.040;2024-02-23T13:27:38;3.15;;;0.63;;
7563;SDS011;3823;53.586;10.040;2024-02-23T13:30:04;2.17;;;1.00;;
7563;SDS011;3823;53.586;10.040;2024-02-23T13:32:30;2.95;;;0.98;;
7563;SDS011;3823;53.586;10.040;2024-02-23T13:34:56;2.65;;;0.80;;
7563;SDS011;3823;53.586;10.040;2024-02-23T13:37:22;1.30;;;0.60;;
7563;SDS011;3823;53.586;10.040;2024-02-23T13:39:48;2.25;;;1.00;;
7563;SDS011;3823;53.586;10.040;2024-02-23T13:42:13;1.20;;;0.65;;
7563;SDS011;3823;53.586;10.040;2024-02-23T13:44:39;1.75;;;0.50;;
7563;SDS011;3823;53.586;10.040;2024-02-23T13:47:04;1.60;;;0.70;;
7563;SDS011;3823;53.586;10.040;2024-02-23T13:49:30;3.70;;;1.02;;
7563;SDS011;3823;53.586;10.040;2024-02-23T13:51:55;2.95;;;0.77;;
7563;SDS011;3823;53.586;10.040;2024-02-23T13:54:21;3.85;;;0.95;;
7563;SDS011;3823;53.586;10.040;2024-02-23T13:56:47;3.40;;;1.00;;
7563;SDS011;3823;53.586;10.040;2024-02-23T13:59:12;3.47;;;0.60;;
7563;SDS011;3823;53.586;10.040;2024-02-23T14:01:38;2.78;;;0.85;;
7563;SDS011;3823;53.586;10.040;2024-02-23T14:04:05;1.65;;;1.00;;
7563;SDS011;3823;53.586;10.040;2024-02-23T14:06:31;3.75;;;0.70;;
7563;SDS011;3823;53.586;10.040;2024-02-23T14:08:58;2.72;;;1.25;;
7563;SDS011;3823;53.586;10.040;2024-02-23T14:11:23;8.43;;;0.90;;
7563;SDS011;3823;53.586;10.040;2024-02-23T14:13:49;3.40;;;0.80;;
7563;SDS011;3823;53.586;10.040;2024-02-23T14:16:14;3.17;;;0.63;;
7563;SDS011;3823;53.586;10.040;2024-02-23T14:18:40;2.95;;;0.80;;
7563;SDS011;3823;53.586;10.040;2024-02-23T14:21:07;1.23;;;0.60;;
7563;SDS011;3823;53.586;10.040;2024-02-23T14:23:33;2.15;;;0.68;;
7563;SDS011;3823;53.586;10.040;2024-02-23T14:25:58;1.50;;;0.82;;
7563;SDS011;3823;53.586;10.040;2024-02-23T14:28:24;2.03;;;1.00;;
7563;SDS011;3823;53.586;10.040;2024-02-23T14:30:50;3.28;;;0.80;;
7563;SDS011;3823;53.586;10.040;2024-02-23T14:33:16;1.90;;;0.75;;
7563;SDS011;3823;53.586;10.040;2024-02-23T14:35:41;4.43;;;0.52;;
7563;SDS011;3823;53.586;10.040;2024-02-23T14:38:07;2.63;;;0.70;;
7563;SDS011;3823;53.586;10.040;2024-02-23T14:40:32;1.40;;;0.60;;
7563;SDS011;3823;53.586;10.040;2024-02-23T14:42:58;1.85;;;0.82;;
7563;SDS011;3823;53.586;10.040;2024-02-23T14:45:24;1.50;;;0.57;;
7563;SDS011;3823;53.586;10.040;2024-02-23T14:47:49;1.83;;;0.88;;
7563;SDS011;3823;53.586;10.040;2024-02-23T14:50:15;5.72;;;1.27;;
7563;SDS011;3823;53.586;10.040;2024-02-23T14:52:41;2.55;;;1.10;;
7563;SDS011;3823;53.586;10.040;2024-02-23T14:55:09;4.72;;;1.13;;